sensor_id;sensor_type;location;lat;lon;timestamp;pressure;altitude;pressure_sealevel;temperature;humidity
35121;BME280;21297;52.008;4.576;2023-07-28T00:02:37;52709.44;;;-143.47;99.75
35121;BME280;21297;52.008;4.576;2023-07-28T00:05:23;52691.75;;;-143.47;100.00
35121;BME280;21297;52.008;4.576;2023-07-28T00:08:08;52727.16;;;-143.47;99.90
35121;BME280;21297;52.008;4.576;2023-07-28T00:10:54;52717.31;;;-143.47;99.74
35121;BME280;21297;52.008;4.576;2023-07-28T00:13:40;52727.16;;;-143.47;100.00
35121;BME280;21297;52.008;4.576;2023-07-28T00:16:25;52729.13;;;-143.47;100.00
35121;BME280;21297;52.008;4.576;2023-07-28T00:19:11;52719.28;;;-143.47;100.00
35121;BME280;21297;52.008;4.576;2023-07-28T00:21:57;52691.75;;;-143.47;100.00
35121;BME280;21297;52.008;4.576;2023-07-28T00:24:42;52725.19;;;-143.47;100.00
35121;BME280;21297;52.008;4.576;2023-07-28T00:27:28;52750.78;;;-143.47;99.75
35121;BME280;21297;52.008;4.576;2023-07-28T00:30:13;52760.63;;;-143.47;100.00
35121;BME280;21297;52.008;4.576;2023-07-28T00:32:59;52727.16;;;-143.47;100.00
35121;BME280;21297;52.008;4.576;2023-07-28T00:35:45;52709.44;;;-143.47;100.00
35121;BME280;21297;52.008;4.576;2023-07-28T00:38:30;52731.09;;;-143.47;100.00
35121;BME280;21297;52.008;4.576;2023-07-28T00:41:16;52794.09;;;-143.47;99.94
35121;BME280;21297;52.008;4.576;2023-07-28T00:44:02;52740.94;;;-143.47;100.00
35121;BME280;21297;52.008;4.576;2023-07-28T00:46:47;52776.38;;;-143.47;100.00
35121;BME280;21297;52.008;4.576;2023-07-28T00:49:33;52758.66;;;-143.47;99.89
35121;BME280;21297;52.008;4.576;2023-07-28T00:52:19;52801.97;;;-143.47;99.01
35121;BME280;21297;52.008;4.576;2023-07-28T00:55:05;52801.97;;;-143.47;98.88
35121;BME280;21297;52.008;4.576;2023-07-28T00:57:51;52778.34;;;-143.47;100.00
35121;BME280;21297;52.008;4.576;2023-07-28T01:00:37;52742.91;;;-143.47;100.00
35121;BME280;21297;52.008;4.576;2023-07-28T01:03:22;52725.19;;;-143.47;100.00
35121;BME280;21297;52.008;4.576;2023-07-28T01:06:25;52760.63;;;-143.47;100.00
35121;BME280;21297;52.008;4.576;2023-07-28T01:09:13;52788.19;;;-143.47;100.00
35121;BME280;21297;52.008;4.576;2023-07-28T01:12:00;52788.19;;;-143.47;100.00
35121;BME280;21297;52.008;4.576;2023-07-28T01:14:46;52754.72;;;-143.47;100.00
35121;BME280;21297;52.008;4.576;2023-07-28T01:17:32;52778.34;;;-143.47;100.00
35121;BME280;21297;52.008;4.576;2023-07-28T01:20:17;52801.97;;;-143.47;100.00
35121;BME280;21297;52.008;4.576;2023-07-28T01:26:05;52809.84;;;-143.47;100.00
35121;BME280;21297;52.008;4.576;2023-07-28T01:28:51;52764.56;;;-143.47;100.00
35121;BME280;21297;52.008;4.576;2023-07-28T01:31:38;52774.41;;;-143.47;100.00
35121;BME280;21297;52.008;4.576;2023-07-28T01:34:24;52770.47;;;-143.47;100.00
35121;BME280;21297;52.008;4.576;2023-07-28T01:37:10;52798.03;;;-143.47;100.00
35121;BME280;21297;52.008;4.576;2023-07-28T01:39:55;52800.00;;;-143.47;100.00
35121;BME280;21297;52.008;4.576;2023-07-28T01:42:42;52801.97;;;-143.47;100.00
35121;BME280;21297;52.008;4.576;2023-07-28T01:45:28;52829.53;;;-143.47;100.00
35121;BME280;21297;52.008;4.576;2023-07-28T01:48:13;52857.06;;;-143.47;100.00
35121;BME280;21297;52.008;4.576;2023-07-28T01:50:59;52829.53;;;-143.47;100.00
35121;BME280;21297;52.008;4.576;2023-07-28T01:53:44;52857.06;;;-143.47;100.00
35121;BME280;21297;52.008;4.576;2023-07-28T01:56:30;52815.75;;;-143.47;100.00
35121;BME280;21297;52.008;4.576;2023-07-28T01:59:15;52857.06;;;-143.47;100.00
35121;BME280;21297;52.008;4.576;2023-07-28T02:02:01;52859.03;;;-143.47;100.00
35121;BME280;21297;52.008;4.576;2023-07-28T02:04:47;52837.41;;;-143.47;100.00
35121;BME280;21297;52.008;4.576;2023-07-28T02:07:32;52847.22;;;-143.47;100.00
35121;BME280;21297;52.008;4.576;2023-07-28T02:10:18;52862.97;;;-143.47;100.00
35121;BME280;21297;52.008;4.576;2023-07-28T02:13:03;52916.13;;;-143.47;100.00
35121;BME280;21297;52.008;4.576;2023-07-28T02:15:49;52857.06;;;-143.47;100.00
35121;BME280;21297;52.008;4.576;2023-07-28T02:18:34;52870.84;;;-143.47;100.00
35121;BME280;21297;52.008;4.576;2023-07-28T02:21:20;52859.03;;;-143.47;100.00
35121;BME280;21297;52.008;4.576;2023-07-28T02:24:05;52908.25;;;-143.47;100.00
35121;BME280;21297;52.008;4.576;2023-07-28T02:26:51;52912.19;;;-143.47;100.00
35121;BME280;21297;52.008;4.576;2023-07-28T02:29:36;52943.69;;;-143.47;99.38
35121;BME280;21297;52.008;4.576;2023-07-28T02:32:22;52931.88;;;-143.47;98.73
35121;BME280;21297;52.008;4.576;2023-07-28T02:35:08;52884.63;;;-143.47;99.56
35121;BME280;21297;52.008;4.576;2023-07-28T02:37:53;52904.31;;;-143.47;100.00
35121;BME280;21297;52.008;4.576;2023-07-28T02:40:39;52872.81;;;-143.47;100.00
35121;BME280;21297;52.008;4.576;2023-07-28T02:43:24;52914.16;;;-143.47;99.64
35121;BME280;21297;52.008;4.576;2023-07-28T02:46:10;52855.09;;;-143.47;100.00
35121;BME280;21297;52.008;4.576;2023-07-28T02:48:56;52870.84;;;-143.47;100.00
35121;BME280;21297;52.008;4.576;2023-07-28T02:51:42;52892.50;;;-143.47;100.00
35121;BME280;21297;52.008;4.576;2023-07-28T02:54:28;52912.19;;;-143.47;100.00
35121;BME280;21297;52.008;4.576;2023-07-28T02:57:13;52874.78;;;-143.47;100.00
35121;BME280;21297;52.008;4.576;2023-07-28T02:59:59;52859.03;;;-143.47;100.00
35121;BME280;21297;52.008;4.576;2023-07-28T03:02:44;52894.47;;;-143.47;100.00
35121;BME280;21297;52.008;4.576;2023-07-28T03:05:32;52894.47;;;-143.47;100.00
35121;BME280;21297;52.008;4.576;2023-07-28T03:08:18;52849.19;;;-143.47;100.00
35121;BME280;21297;52.008;4.576;2023-07-28T03:11:03;52896.44;;;-143.47;100.00
35121;BME280;21297;52.008;4.576;2023-07-28T03:13:49;52916.13;;;-143.47;100.00
35121;BME280;21297;52.008;4.576;2023-07-28T03:16:34;52853.13;;;-143.47;100.00
35121;BME280;21297;52.008;4.576;2023-07-28T03:19:20;52900.38;;;-143.47;100.00
35121;BME280;21297;52.008;4.576;2023-07-28T03:22:05;52904.31;;;-143.47;100.00
35121;BME280;21297;52.008;4.576;2023-07-28T03:24:51;52916.13;;;-143.47;100.00
35121;BME280;21297;52.008;4.576;2023-07-28T03:27:37;52912.19;;;-143.47;100.00
35121;BME280;21297;52.008;4.576;2023-07-28T03:30:22;52935.81;;;-143.47;100.00
35121;BME280;21297;52.008;4.576;2023-07-28T03:33:08;52878.72;;;-143.47;100.00
35121;BME280;21297;52.008;4.576;2023-07-28T03:35:53;52927.94;;;-143.47;100.00
35121;BME280;21297;52.008;4.576;2023-07-28T03:38:39;52912.19;;;-143.47;100.00
35121;BME280;21297;52.008;4.576;2023-07-28T03:41:24;52949.59;;;-143.47;100.00
35121;BME280;21297;52.008;4.576;2023-07-28T03:44:10;52927.94;;;-143.47;100.00
35121;BME280;21297;52.008;4.576;2023-07-28T03:46:55;52935.81;;;-143.47;100.00
35121;BME280;21297;52.008;4.576;2023-07-28T03:49:41;52904.31;;;-143.47;100.00
35121;BME280;21297;52.008;4.576;2023-07-28T03:52:27;52884.63;;;-143.47;100.00
35121;BME280;21297;52.008;4.576;2023-07-28T03:55:12;52878.72;;;-143.47;100.00
35121;BME280;21297;52.008;4.576;2023-07-28T03:57:58;52888.56;;;-143.47;100.00
35121;BME280;21297;52.008;4.576;2023-07-28T04:00:43;52916.13;;;-143.47;100.00
35121;BME280;21297;52.008;4.576;2023-07-28T04:03:29;52878.72;;;-143.47;100.00
35121;BME280;21297;52.008;4.576;2023-07-28T04:06:14;52935.81;;;-143.47;100.00
35121;BME280;21297;52.008;4.576;2023-07-28T04:09:00;52922.03;;;-143.47;100.00
35121;BME280;21297;52.008;4.576;2023-07-28T04:11:46;52878.72;;;-143.47;100.00
35121;BME280;21297;52.008;4.576;2023-07-28T04:14:31;52894.47;;;-143.47;100.00
35121;BME280;21297;52.008;4.576;2023-07-28T04:17:17;52927.94;;;-143.47;100.00
35121;BME280;21297;52.008;4.576;2023-07-28T04:20:03;52951.56;;;-143.47;100.00
35121;BME280;21297;52.008;4.576;2023-07-28T04:22:49;52927.94;;;-143.47;100.00
35121;BME280;21297;52.008;4.576;2023-07-28T04:25:34;52953.53;;;-143.47;100.00
35121;BME280;21297;52.008;4.576;2023-07-28T04:28:20;52939.75;;;-143.47;100.00
35121;BME280;21297;52.008;4.576;2023-07-28T04:31:05;52912.19;;;-143.47;100.00
35121;BME280;21297;52.008;4.576;2023-07-28T04:33:51;52971.25;;;-143.47;100.00
35121;BME280;21297;52.008;4.576;2023-07-28T04:36:36;52951.56;;;-143.47;100.00
35121;BME280;21297;52.008;4.576;2023-07-28T04:39:22;52975.19;;;-143.47;100.00
35121;BME280;21297;52.008;4.576;2023-07-28T04:42:07;52957.47;;;-143.47;100.00
35121;BME280;21297;52.008;4.576;2023-07-28T04:44:53;52969.28;;;-143.47;100.00
35121;BME280;21297;52.008;4.576;2023-07-28T04:47:39;52971.25;;;-143.47;100.00
35121;BME280;21297;52.008;4.576;2023-07-28T04:50:24;52981.09;;;-143.47;100.00
35121;BME280;21297;52.008;4.576;2023-07-28T04:53:10;52955.50;;;-143.47;100.00
35121;BME280;21297;52.008;4.576;2023-07-28T04:55:55;53006.69;;;-143.47;100.00
35121;BME280;21297;52.008;4.576;2023-07-28T04:58:41;52987.00;;;-143.47;100.00
35121;BME280;21297;52.008;4.576;2023-07-28T05:01:26;53024.41;;;-143.47;100.00
35121;BME280;21297;52.008;4.576;2023-07-28T05:04:12;53030.28;;;-143.47;100.00
35121;BME280;21297;52.008;4.576;2023-07-28T05:06:58;53053.91;;;-143.47;100.00
35121;BME280;21297;52.008;4.576;2023-07-28T05:09:43;52998.81;;;-143.47;100.00
35121;BME280;21297;52.008;4.576;2023-07-28T05:12:30;53030.28;;;-143.47;100.00
35121;BME280;21297;52.008;4.576;2023-07-28T05:15:15;53057.84;;;-143.47;100.00
35121;BME280;21297;52.008;4.576;2023-07-28T05:18:01;53006.69;;;-143.47;100.00
35121;BME280;21297;52.008;4.576;2023-07-28T05:20:46;53120.84;;;-143.47;98.89
35121;BME280;21297;52.008;4.576;2023-07-28T05:23:32;53162.19;;;-143.47;97.09
35121;BME280;21297;52.008;4.576;2023-07-28T05:26:17;53193.69;;;-143.47;94.74
35121;BME280;21297;52.008;4.576;2023-07-28T05:29:03;53144.47;;;-143.47;94.79
35121;BME280;21297;52.008;4.576;2023-07-28T05:31:49;53148.41;;;-143.47;95.33
35121;BME280;21297;52.008;4.576;2023-07-28T05:34:34;53111.00;;;-143.47;95.48
35121;BME280;21297;52.008;4.576;2023-07-28T05:37:20;53116.91;;;-143.47;95.81
35121;BME280;21297;52.008;4.576;2023-07-28T05:40:05;53132.66;;;-143.47;96.29
35121;BME280;21297;52.008;4.576;2023-07-28T05:42:51;53199.59;;;-143.47;95.20
35121;BME280;21297;52.008;4.576;2023-07-28T05:45:37;53150.38;;;-143.47;95.70
35121;BME280;21297;52.008;4.576;2023-07-28T05:48:22;53081.47;;;-143.47;97.20
35121;BME280;21297;52.008;4.576;2023-07-28T05:51:08;53103.13;;;-143.47;96.18
35121;BME280;21297;52.008;4.576;2023-07-28T05:53:54;53103.13;;;-143.47;98.16
35121;BME280;21297;52.008;4.576;2023-07-28T05:56:39;53083.44;;;-143.47;98.46
35121;BME280;21297;52.008;4.576;2023-07-28T05:59:25;53105.09;;;-143.47;97.63
35121;BME280;21297;52.008;4.576;2023-07-28T06:02:11;53105.09;;;-143.47;95.72
35121;BME280;21297;52.008;4.576;2023-07-28T06:04:56;53150.38;;;-143.47;95.15
35121;BME280;21297;52.008;4.576;2023-07-28T06:07:42;53140.53;;;-143.47;95.24
35121;BME280;21297;52.008;4.576;2023-07-28T06:10:27;53111.00;;;-143.47;95.43
35121;BME280;21297;52.008;4.576;2023-07-28T06:13:13;53152.34;;;-143.47;95.51
35121;BME280;21297;52.008;4.576;2023-07-28T06:15:59;53148.41;;;-143.47;94.23
35121;BME280;21297;52.008;4.576;2023-07-28T06:18:44;53142.50;;;-143.47;94.23
35121;BME280;21297;52.008;4.576;2023-07-28T06:21:30;53152.34;;;-143.47;94.84
35121;BME280;21297;52.008;4.576;2023-07-28T06:24:15;53144.47;;;-143.47;94.90
35121;BME280;21297;52.008;4.576;2023-07-28T06:27:01;53211.41;;;-143.47;93.49
35121;BME280;21297;52.008;4.576;2023-07-28T06:29:52;53191.72;;;-143.47;92.80
35121;BME280;21297;52.008;4.576;2023-07-28T06:32:38;53132.66;;;-143.47;93.76
35121;BME280;21297;52.008;4.576;2023-07-28T06:35:23;53175.97;;;-143.47;92.85
35121;BME280;21297;52.008;4.576;2023-07-28T06:38:09;53164.16;;;-143.47;94.15
35121;BME280;21297;52.008;4.576;2023-07-28T06:40:57;53164.16;;;-143.47;94.31
35121;BME280;21297;52.008;4.576;2023-07-28T06:43:50;53170.06;;;-143.47;93.65
35121;BME280;21297;52.008;4.576;2023-07-28T06:46:36;53203.53;;;-143.47;92.82
35121;BME280;21297;52.008;4.576;2023-07-28T06:49:22;53207.47;;;-143.47;92.53
35121;BME280;21297;52.008;4.576;2023-07-28T06:52:07;53197.63;;;-143.47;93.26
35121;BME280;21297;52.008;4.576;2023-07-28T06:54:53;53158.25;;;-143.47;92.76
35121;BME280;21297;52.008;4.576;2023-07-28T06:57:40;53211.41;;;-143.47;93.07
35121;BME280;21297;52.008;4.576;2023-07-28T07:00:25;53203.53;;;-143.47;91.70
35121;BME280;21297;52.008;4.576;2023-07-28T07:03:11;53191.72;;;-143.47;90.83
35121;BME280;21297;52.008;4.576;2023-07-28T07:05:57;53264.56;;;-143.47;88.50
35121;BME280;21297;52.008;4.576;2023-07-28T07:08:42;53209.44;;;-143.47;88.05
35121;BME280;21297;52.008;4.576;2023-07-28T07:11:29;53213.38;;;-143.47;87.64
35121;BME280;21297;52.008;4.576;2023-07-28T07:14:14;53235.03;;;-143.47;87.59
35121;BME280;21297;52.008;4.576;2023-07-28T07:17:00;53207.47;;;-143.47;87.85
35121;BME280;21297;52.008;4.576;2023-07-28T07:19:45;53223.22;;;-143.47;87.25
35121;BME280;21297;52.008;4.576;2023-07-28T07:22:31;53235.03;;;-143.47;87.63
35121;BME280;21297;52.008;4.576;2023-07-28T07:25:16;53252.75;;;-143.47;88.19
35121;BME280;21297;52.008;4.576;2023-07-28T07:28:02;53258.66;;;-143.47;87.88
35121;BME280;21297;52.008;4.576;2023-07-28T07:30:47;53329.50;;;-143.47;85.17
35121;BME280;21297;52.008;4.576;2023-07-28T07:33:33;53386.59;;;-143.47;83.75
35121;BME280;21297;52.008;4.576;2023-07-28T07:36:19;53384.63;;;-143.47;84.03
35121;BME280;21297;52.008;4.576;2023-07-28T07:39:05;53296.03;;;-143.47;84.03
35121;BME280;21297;52.008;4.576;2023-07-28T07:41:51;53343.28;;;-143.47;83.54
35121;BME280;21297;52.008;4.576;2023-07-28T07:44:36;53362.97;;;-143.47;83.98
35121;BME280;21297;52.008;4.576;2023-07-28T07:47:22;53465.34;;;-143.47;82.81
35121;BME280;21297;52.008;4.576;2023-07-28T07:50:08;53488.97;;;-143.47;81.74
35121;BME280;21297;52.008;4.576;2023-07-28T07:52:57;53573.63;;;-143.47;80.39
35121;BME280;21297;52.008;4.576;2023-07-28T07:55:42;53609.06;;;-143.47;80.19
35121;BME280;21297;52.008;4.576;2023-07-28T07:58:28;53654.34;;;-143.47;81.21
35121;BME280;21297;52.008;4.576;2023-07-28T08:01:14;53687.81;;;-143.47;80.40
35121;BME280;21297;52.008;4.576;2023-07-28T08:03:59;53839.41;;;-143.47;78.85
35121;BME280;21297;52.008;4.576;2023-07-28T08:06:45;53817.75;;;-143.47;77.85
35121;BME280;21297;52.008;4.576;2023-07-28T08:09:30;53857.13;;;-143.47;77.38
35121;BME280;21297;52.008;4.576;2023-07-28T08:12:16;53926.03;;;-143.47;78.06
35121;BME280;21297;52.008;4.576;2023-07-28T08:15:02;53904.38;;;-143.47;78.54
35121;BME280;21297;52.008;4.576;2023-07-28T08:17:47;54006.78;;;-143.47;76.99
35121;BME280;21297;52.008;4.576;2023-07-28T08:20:33;54034.34;;;-143.47;75.42
35121;BME280;21297;52.008;4.576;2023-07-28T08:23:18;54012.69;;;-143.47;73.81
35121;BME280;21297;52.008;4.576;2023-07-28T08:26:04;54069.78;;;-143.47;72.91
35121;BME280;21297;52.008;4.576;2023-07-28T08:28:49;53963.47;;;-143.47;74.12
35121;BME280;21297;52.008;4.576;2023-07-28T08:31:35;53983.16;;;-143.47;75.46
35121;BME280;21297;52.008;4.576;2023-07-28T08:34:20;53961.50;;;-143.47;73.77
35121;BME280;21297;52.008;4.576;2023-07-28T08:37:06;53912.25;;;-143.47;75.06
35121;BME280;21297;52.008;4.576;2023-07-28T08:39:51;53969.38;;;-143.47;74.38
35121;BME280;21297;52.008;4.576;2023-07-28T08:42:38;53872.88;;;-143.47;74.74
35121;BME280;21297;52.008;4.576;2023-07-28T08:45:23;53994.97;;;-143.47;76.13
35121;BME280;21297;52.008;4.576;2023-07-28T08:48:11;54093.41;;;-143.47;74.89
35121;BME280;21297;52.008;4.576;2023-07-28T08:50:56;54105.22;;;-143.47;73.98
35121;BME280;21297;52.008;4.576;2023-07-28T08:53:42;54097.34;;;-143.47;72.53
35121;BME280;21297;52.008;4.576;2023-07-28T08:56:27;54144.59;;;-143.47;72.60
35121;BME280;21297;52.008;4.576;2023-07-28T08:59:23;54138.69;;;-143.47;71.88
35121;BME280;21297;52.008;4.576;2023-07-28T09:02:11;54085.53;;;-143.47;72.25
35121;BME280;21297;52.008;4.576;2023-07-28T09:04:56;54138.69;;;-143.47;70.96
35121;BME280;21297;52.008;4.576;2023-07-28T09:07:42;54158.38;;;-143.47;70.48
35121;BME280;21297;52.008;4.576;2023-07-28T09:10:40;54156.41;;;-143.47;72.79
35121;BME280;21297;52.008;4.576;2023-07-28T09:13:27;54113.09;;;-143.47;71.93
35121;BME280;21297;52.008;4.576;2023-07-28T09:16:20;54176.09;;;-143.47;73.30
35121;BME280;21297;52.008;4.576;2023-07-28T09:19:06;54215.47;;;-143.47;72.62
35121;BME280;21297;52.008;4.576;2023-07-28T09:21:58;54280.47;;;-143.47;70.00
35121;BME280;21297;52.008;4.576;2023-07-28T09:24:44;54341.50;;;-143.47;70.99
35121;BME280;21297;52.008;4.576;2023-07-28T09:27:30;54317.88;;;-143.47;69.96
35121;BME280;21297;52.008;4.576;2023-07-28T09:30:16;54274.56;;;-143.47;69.75
35121;BME280;21297;52.008;4.576;2023-07-28T09:33:02;54254.88;;;-143.47;68.57
35121;BME280;21297;52.008;4.576;2023-07-28T09:35:50;54050.09;;;-143.47;68.95
35121;BME280;21297;52.008;4.576;2023-07-28T09:38:38;53975.28;;;-143.47;72.13
35121;BME280;21297;52.008;4.576;2023-07-28T09:41:29;53809.88;;;-143.47;73.29
35121;BME280;21297;52.008;4.576;2023-07-28T09:44:15;53770.50;;;-143.47;75.10
35121;BME280;21297;52.008;4.576;2023-07-28T09:47:01;53888.63;;;-143.47;75.24
35121;BME280;21297;52.008;4.576;2023-07-28T09:49:46;53979.22;;;-143.47;74.61
35121;BME280;21297;52.008;4.576;2023-07-28T09:52:37;54022.53;;;-143.47;74.00
35121;BME280;21297;52.008;4.576;2023-07-28T09:55:26;53916.19;;;-143.47;76.07
35121;BME280;21297;52.008;4.576;2023-07-28T09:58:11;53888.63;;;-143.47;73.49
35121;BME280;21297;52.008;4.576;2023-07-28T10:00:58;53994.97;;;-143.47;73.38
35121;BME280;21297;52.008;4.576;2023-07-28T10:03:43;53943.78;;;-143.47;73.17
35121;BME280;21297;52.008;4.576;2023-07-28T10:06:29;53731.13;;;-143.47;74.03
35121;BME280;21297;52.008;4.576;2023-07-28T10:09:15;53727.19;;;-143.47;75.07
35121;BME280;21297;52.008;4.576;2023-07-28T10:12:01;53425.97;;;-143.47;78.63
35121;BME280;21297;52.008;4.576;2023-07-28T10:14:50;53475.19;;;-143.47;77.95
35121;BME280;21297;52.008;4.576;2023-07-28T10:17:54;53644.50;;;-143.47;77.25
35121;BME280;21297;52.008;4.576;2023-07-28T10:20:42;53660.25;;;-143.47;75.26
35121;BME280;21297;52.008;4.576;2023-07-28T10:23:28;53630.72;;;-143.47;75.86
35121;BME280;21297;52.008;4.576;2023-07-28T10:26:14;53766.56;;;-143.47;75.84
35121;BME280;21297;52.008;4.576;2023-07-28T10:29:15;53845.31;;;-143.47;72.03
35121;BME280;21297;52.008;4.576;2023-07-28T10:32:01;53882.72;;;-143.47;71.77
35121;BME280;21297;52.008;4.576;2023-07-28T10:34:58;53937.84;;;-143.47;72.25
35121;BME280;21297;52.008;4.576;2023-07-28T10:37:44;53994.97;;;-143.47;71.19
35121;BME280;21297;52.008;4.576;2023-07-28T10:40:31;54079.63;;;-143.47;70.60
35121;BME280;21297;52.008;4.576;2023-07-28T10:43:18;54075.69;;;-143.47;70.53
35121;BME280;21297;52.008;4.576;2023-07-28T10:46:04;54069.78;;;-143.47;70.10
35121;BME280;21297;52.008;4.576;2023-07-28T10:48:53;54067.81;;;-143.47;70.65
35121;BME280;21297;52.008;4.576;2023-07-28T10:51:38;54134.75;;;-143.47;70.24
35121;BME280;21297;52.008;4.576;2023-07-28T10:54:24;54266.69;;;-143.47;69.68
35121;BME280;21297;52.008;4.576;2023-07-28T10:57:11;54290.31;;;-143.47;67.68
35121;BME280;21297;52.008;4.576;2023-07-28T10:59:59;54243.06;;;-143.47;68.30
35121;BME280;21297;52.008;4.576;2023-07-28T11:02:48;54311.97;;;-143.47;66.46
35121;BME280;21297;52.008;4.576;2023-07-28T11:05:33;54394.66;;;-143.47;66.08
35121;BME280;21297;52.008;4.576;2023-07-28T11:08:19;54310.00;;;-143.47;65.11
35121;BME280;21297;52.008;4.576;2023-07-28T11:11:04;54235.19;;;-143.47;64.12
35121;BME280;21297;52.008;4.576;2023-07-28T11:13:51;54250.94;;;-143.47;64.70
35121;BME280;21297;52.008;4.576;2023-07-28T11:16:37;54315.91;;;-143.47;65.77
35121;BME280;21297;52.008;4.576;2023-07-28T11:19:24;54367.09;;;-143.47;64.79
35121;BME280;21297;52.008;4.576;2023-07-28T11:22:10;54239.13;;;-143.47;64.72
35121;BME280;21297;52.008;4.576;2023-07-28T11:24:55;54373.00;;;-143.47;63.52
35121;BME280;21297;52.008;4.576;2023-07-28T11:27:41;54457.69;;;-143.47;63.87
35121;BME280;21297;52.008;4.576;2023-07-28T11:30:26;54030.41;;;-143.47;67.34
35121;BME280;21297;52.008;4.576;2023-07-28T11:33:12;54128.84;;;-143.47;67.55
35121;BME280;21297;52.008;4.576;2023-07-28T11:35:58;54215.47;;;-143.47;66.37
35121;BME280;21297;52.008;4.576;2023-07-28T11:38:44;54365.13;;;-143.47;65.08
35121;BME280;21297;52.008;4.576;2023-07-28T11:41:29;54719.59;;;-143.47;64.95
35121;BME280;21297;52.008;4.576;2023-07-28T11:44:15;54755.03;;;-143.47;62.94
35121;BME280;21297;52.008;4.576;2023-07-28T11:47:03;54627.03;;;-143.47;62.41
35121;BME280;21297;52.008;4.576;2023-07-28T11:49:49;54715.66;;;-143.47;63.11
35121;BME280;21297;52.008;4.576;2023-07-28T11:52:36;54605.38;;;-143.47;62.44
35121;BME280;21297;52.008;4.576;2023-07-28T11:55:22;54849.56;;;-143.47;64.08
35121;BME280;21297;52.008;4.576;2023-07-28T11:58:08;54806.25;;;-143.47;62.24
35121;BME280;21297;52.008;4.576;2023-07-28T12:00:54;54485.25;;;-143.47;64.02
35121;BME280;21297;52.008;4.576;2023-07-28T12:03:40;54304.09;;;-143.47;64.68
35121;BME280;21297;52.008;4.576;2023-07-28T12:06:26;54101.28;;;-143.47;67.16
35121;BME280;21297;52.008;4.576;2023-07-28T12:09:11;54205.63;;;-143.47;65.66
35121;BME280;21297;52.008;4.576;2023-07-28T12:11:57;54150.50;;;-143.47;68.09
35121;BME280;21297;52.008;4.576;2023-07-28T12:14:44;54264.72;;;-143.47;67.93
35121;BME280;21297;52.008;4.576;2023-07-28T12:17:32;54272.59;;;-143.47;66.28
35121;BME280;21297;52.008;4.576;2023-07-28T12:20:18;54526.59;;;-143.47;64.37
35121;BME280;21297;52.008;4.576;2023-07-28T12:23:04;54518.72;;;-143.47;63.91
35121;BME280;21297;52.008;4.576;2023-07-28T12:25:50;54434.06;;;-143.47;63.62
35121;BME280;21297;52.008;4.576;2023-07-28T12:28:38;53969.38;;;-143.47;66.99
35121;BME280;21297;52.008;4.576;2023-07-28T12:31:24;54152.47;;;-143.47;66.47
35121;BME280;21297;52.008;4.576;2023-07-28T12:34:09;54191.84;;;-143.47;66.13
35121;BME280;21297;52.008;4.576;2023-07-28T12:36:55;54160.34;;;-143.47;68.45
35121;BME280;21297;52.008;4.576;2023-07-28T12:39:41;54467.53;;;-143.47;66.43
35121;BME280;21297;52.008;4.576;2023-07-28T12:42:27;54554.19;;;-143.47;63.10
35121;BME280;21297;52.008;4.576;2023-07-28T12:45:13;54296.22;;;-143.47;64.57
35121;BME280;21297;52.008;4.576;2023-07-28T12:47:58;54365.13;;;-143.47;64.28
35121;BME280;21297;52.008;4.576;2023-07-28T12:50:45;54591.59;;;-143.47;63.87
35121;BME280;21297;52.008;4.576;2023-07-28T12:53:31;54668.38;;;-143.47;63.64
35121;BME280;21297;52.008;4.576;2023-07-28T12:56:19;54686.13;;;-143.47;62.64
35121;BME280;21297;52.008;4.576;2023-07-28T12:59:07;54420.28;;;-143.47;62.71
35121;BME280;21297;52.008;4.576;2023-07-28T13:01:53;54382.84;;;-143.47;64.42
35121;BME280;21297;52.008;4.576;2023-07-28T13:04:39;54329.69;;;-143.47;64.61
35121;BME280;21297;52.008;4.576;2023-07-28T13:07:24;54304.09;;;-143.47;64.72
35121;BME280;21297;52.008;4.576;2023-07-28T13:10:10;54345.44;;;-143.47;65.08
35121;BME280;21297;52.008;4.576;2023-07-28T13:12:56;54022.53;;;-143.47;64.33
35121;BME280;21297;52.008;4.576;2023-07-28T13:15:42;54195.78;;;-143.47;65.90
35121;BME280;21297;52.008;4.576;2023-07-28T13:18:27;54317.88;;;-143.47;64.84
35121;BME280;21297;52.008;4.576;2023-07-28T13:21:17;54223.38;;;-143.47;63.64
35121;BME280;21297;52.008;4.576;2023-07-28T13:24:05;54209.56;;;-143.47;64.99
35121;BME280;21297;52.008;4.576;2023-07-28T13:26:50;54160.34;;;-143.47;65.96
35121;BME280;21297;52.008;4.576;2023-07-28T13:29:41;53993.00;;;-143.47;65.64
35121;BME280;21297;52.008;4.576;2023-07-28T13:32:26;53672.06;;;-143.47;67.39
35121;BME280;21297;52.008;4.576;2023-07-28T13:35:12;53559.84;;;-143.47;70.28
35121;BME280;21297;52.008;4.576;2023-07-28T13:38:00;53581.50;;;-143.47;71.46
35121;BME280;21297;52.008;4.576;2023-07-28T13:40:45;53577.56;;;-143.47;72.25
35121;BME280;21297;52.008;4.576;2023-07-28T13:43:31;53416.13;;;-143.47;74.26
35121;BME280;21297;52.008;4.576;2023-07-28T13:46:17;53603.16;;;-143.47;74.57
35121;BME280;21297;52.008;4.576;2023-07-28T13:49:02;53587.41;;;-143.47;71.96
35121;BME280;21297;52.008;4.576;2023-07-28T13:51:50;53567.72;;;-143.47;72.44
35121;BME280;21297;52.008;4.576;2023-07-28T13:54:36;53607.09;;;-143.47;72.81
35121;BME280;21297;52.008;4.576;2023-07-28T13:57:22;53583.47;;;-143.47;71.97
35121;BME280;21297;52.008;4.576;2023-07-28T14:00:09;53559.84;;;-143.47;72.57
35121;BME280;21297;52.008;4.576;2023-07-28T14:02:55;53701.59;;;-143.47;73.19
35121;BME280;21297;52.008;4.576;2023-07-28T14:05:41;53731.13;;;-143.47;73.26
35121;BME280;21297;52.008;4.576;2023-07-28T14:08:26;53677.97;;;-143.47;73.62
35121;BME280;21297;52.008;4.576;2023-07-28T14:11:12;53723.25;;;-143.47;72.52
35121;BME280;21297;52.008;4.576;2023-07-28T14:13:57;53632.69;;;-143.47;73.75
35121;BME280;21297;52.008;4.576;2023-07-28T14:16:43;53628.75;;;-143.47;73.68